sensor_id;sensor_type;location;lat;lon;timestamp;temperature;humidity
7738;DHT22;29398;45.328;5.558;2023-07-09T00:00:31;24.70;90.50
7738;DHT22;29398;45.328;5.558;2023-07-09T00:01:33;24.70;90.80
7738;DHT22;29398;45.328;5.558;2023-07-09T00:02:34;24.70;90.50
7738;DHT22;29398;45.328;5.558;2023-07-09T00:03:36;24.70;90.60
7738;DHT22;29398;45.328;5.558;2023-07-09T00:04:37;24.70;90.50
7738;DHT22;29398;45.328;5.558;2023-07-09T00:05:39;24.70;90.50
7738;DHT22;29398;45.328;5.558;2023-07-09T00:06:41;24.70;90.70
7738;DHT22;29398;45.328;5.558;2023-07-09T00:07:44;24.70;90.60
7738;DHT22;29398;45.328;5.558;2023-07-09T00:08:46;24.70;90.60
7738;DHT22;29398;45.328;5.558;2023-07-09T00:09:49;24.70;90.50
7738;DHT22;29398;45.328;5.558;2023-07-09T00:10:53;24.70;90.50
7738;DHT22;29398;45.328;5.558;2023-07-09T00:11:55;24.70;90.60
7738;DHT22;29398;45.328;5.558;2023-07-09T00:12:58;24.60;90.30
7738;DHT22;29398;45.328;5.558;2023-07-09T00:14:00;24.70;90.80
7738;DHT22;29398;45.328;5.558;2023-07-09T00:15:01;24.60;91.00
7738;DHT22;29398;45.328;5.558;2023-07-09T00:16:21;24.60;91.20
7738;DHT22;29398;45.328;5.558;2023-07-09T00:17:27;24.60;92.10
7738;DHT22;29398;45.328;5.558;2023-07-09T00:18:31;24.50;91.70
7738;DHT22;29398;45.328;5.558;2023-07-09T00:19:32;24.40;91.80
7738;DHT22;29398;45.328;5.558;2023-07-09T00:20:33;24.40;92.40
7738;DHT22;29398;45.328;5.558;2023-07-09T00:21:34;24.30;92.40
7738;DHT22;29398;45.328;5.558;2023-07-09T00:22:37;24.30;92.60
7738;DHT22;29398;45.328;5.558;2023-07-09T00:23:38;24.20;92.50
7738;DHT22;29398;45.328;5.558;2023-07-09T00:24:39;24.20;92.70
7738;DHT22;29398;45.328;5.558;2023-07-09T00:25:41;24.10;92.80
7738;DHT22;29398;45.328;5.558;2023-07-09T00:26:45;24.10;92.90
7738;DHT22;29398;45.328;5.558;2023-07-09T00:27:50;24.10;93.40
7738;DHT22;29398;45.328;5.558;2023-07-09T00:28:53;24.00;93.20
7738;DHT22;29398;45.328;5.558;2023-07-09T00:29:54;23.90;93.20
7738;DHT22;29398;45.328;5.558;2023-07-09T00:30:56;23.90;93.60
7738;DHT22;29398;45.328;5.558;2023-07-09T00:31:57;23.90;93.90
7738;DHT22;29398;45.328;5.558;2023-07-09T00:32:59;23.90;94.00
7738;DHT22;29398;45.328;5.558;2023-07-09T00:34:02;23.90;94.10
7738;DHT22;29398;45.328;5.558;2023-07-09T00:35:05;23.90;94.30
7738;DHT22;29398;45.328;5.558;2023-07-09T00:36:13;23.80;94.40
7738;DHT22;29398;45.328;5.558;2023-07-09T00:37:16;23.80;94.60
7738;DHT22;29398;45.328;5.558;2023-07-09T00:38:19;23.80;94.80
7738;DHT22;29398;45.328;5.558;2023-07-09T00:39:22;23.80;94.90
7738;DHT22;29398;45.328;5.558;2023-07-09T00:40:23;23.70;95.10
7738;DHT22;29398;45.328;5.558;2023-07-09T00:41:26;23.70;95.20
7738;DHT22;29398;45.328;5.558;2023-07-09T00:42:29;23.70;95.40
7738;DHT22;29398;45.328;5.558;2023-07-09T00:43:34;23.70;95.40
7738;DHT22;29398;45.328;5.558;2023-07-09T00:44:37;23.70;95.50
7738;DHT22;29398;45.328;5.558;2023-07-09T00:45:42;23.70;95.60
7738;DHT22;29398;45.328;5.558;2023-07-09T00:48:25;23.70;96.10
7738;DHT22;29398;45.328;5.558;2023-07-09T00:49:29;23.70;95.90
7738;DHT22;29398;45.328;5.558;2023-07-09T00:50:38;23.70;96.00
7738;DHT22;29398;45.328;5.558;2023-07-09T00:51:44;23.70;96.00
7738;DHT22;29398;45.328;5.558;2023-07-09T00:52:50;23.70;96.20
7738;DHT22;29398;45.328;5.558;2023-07-09T00:53:57;23.70;96.30
7738;DHT22;29398;45.328;5.558;2023-07-09T00:55:02;23.70;96.40
7738;DHT22;29398;45.328;5.558;2023-07-09T00:56:08;23.60;96.40
7738;DHT22;29398;45.328;5.558;2023-07-09T00:57:13;23.60;96.50
7738;DHT22;29398;45.328;5.558;2023-07-09T00:58:18;23.60;96.70
7738;DHT22;29398;45.328;5.558;2023-07-09T00:59:24;23.60;96.80
7738;DHT22;29398;45.328;5.558;2023-07-09T01:00:34;23.60;96.80
7738;DHT22;29398;45.328;5.558;2023-07-09T01:01:44;23.60;97.00
7738;DHT22;29398;45.328;5.558;2023-07-09T01:02:48;23.60;97.10
7738;DHT22;29398;45.328;5.558;2023-07-09T01:03:53;23.60;97.10
7738;DHT22;29398;45.328;5.558;2023-07-09T01:04:59;23.60;97.20
7738;DHT22;29398;45.328;5.558;2023-07-09T01:06:03;23.60;97.20
7738;DHT22;29398;45.328;5.558;2023-07-09T01:07:06;23.60;97.40
7738;DHT22;29398;45.328;5.558;2023-07-09T01:08:08;23.60;97.70
7738;DHT22;29398;45.328;5.558;2023-07-09T01:09:10;23.60;97.50
7738;DHT22;29398;45.328;5.558;2023-07-09T01:10:12;23.60;97.60
7738;DHT22;29398;45.328;5.558;2023-07-09T01:11:15;23.60;97.70
7738;DHT22;29398;45.328;5.558;2023-07-09T01:12:22;23.60;97.80
7738;DHT22;29398;45.328;5.558;2023-07-09T01:13:24;23.50;97.80
7738;DHT22;29398;45.328;5.558;2023-07-09T01:14:27;23.60;97.90
7738;DHT22;29398;45.328;5.558;2023-07-09T01:15:29;23.60;98.20
7738;DHT22;29398;45.328;5.558;2023-07-09T01:16:38;23.60;97.80
7738;DHT22;29398;45.328;5.558;2023-07-09T01:17:41;23.60;98.00
7738;DHT22;29398;45.328;5.558;2023-07-09T01:18:45;23.60;97.90
7738;DHT22;29398;45.328;5.558;2023-07-09T01:19:50;23.60;98.00
7738;DHT22;29398;45.328;5.558;2023-07-09T01:20:58;23.60;98.00
7738;DHT22;29398;45.328;5.558;2023-07-09T01:22:01;23.60;98.00
7738;DHT22;29398;45.328;5.558;2023-07-09T01:23:02;23.60;98.00
7738;DHT22;29398;45.328;5.558;2023-07-09T01:24:15;23.60;98.10
7738;DHT22;29398;45.328;5.558;2023-07-09T01:25:16;23.60;98.20
7738;DHT22;29398;45.328;5.558;2023-07-09T01:26:20;23.60;98.10
7738;DHT22;29398;45.328;5.558;2023-07-09T01:27:24;23.60;98.20
7738;DHT22;29398;45.328;5.558;2023-07-09T01:28:27;23.60;98.00
7738;DHT22;29398;45.328;5.558;2023-07-09T01:29:30;23.60;98.00
7738;DHT22;29398;45.328;5.558;2023-07-09T01:30:36;23.60;98.10
7738;DHT22;29398;45.328;5.558;2023-07-09T01:31:39;23.60;98.00
7738;DHT22;29398;45.328;5.558;2023-07-09T01:32:40;23.60;98.10
7738;DHT22;29398;45.328;5.558;2023-07-09T01:33:46;23.60;98.00
7738;DHT22;29398;45.328;5.558;2023-07-09T01:34:49;23.60;98.00
7738;DHT22;29398;45.328;5.558;2023-07-09T01:35:53;23.50;98.00
7738;DHT22;29398;45.328;5.558;2023-07-09T01:37:02;23.50;98.10
7738;DHT22;29398;45.328;5.558;2023-07-09T01:38:04;23.60;98.20
7738;DHT22;29398;45.328;5.558;2023-07-09T01:39:09;23.60;98.50
7738;DHT22;29398;45.328;5.558;2023-07-09T01:40:14;23.50;98.20
7738;DHT22;29398;45.328;5.558;2023-07-09T01:41:15;23.60;98.30
7738;DHT22;29398;45.328;5.558;2023-07-09T01:42:20;23.60;98.30
7738;DHT22;29398;45.328;5.558;2023-07-09T01:43:22;23.60;98.30
7738;DHT22;29398;45.328;5.558;2023-07-09T01:44:25;23.50;98.30
7738;DHT22;29398;45.328;5.558;2023-07-09T01:45:29;23.50;98.30
7738;DHT22;29398;45.328;5.558;2023-07-09T01:46:31;23.50;98.30
7738;DHT22;29398;45.328;5.558;2023-07-09T01:47:33;23.50;98.30
7738;DHT22;29398;45.328;5.558;2023-07-09T01:48:35;23.50;98.40
7738;DHT22;29398;45.328;5.558;2023-07-09T01:49:43;23.50;98.50
7738;DHT22;29398;45.328;5.558;2023-07-09T01:50:47;23.50;98.30
7738;DHT22;29398;45.328;5.558;2023-07-09T01:51:51;23.50;98.30
7738;DHT22;29398;45.328;5.558;2023-07-09T01:52:55;23.50;98.30
7738;DHT22;29398;45.328;5.558;2023-07-09T01:53:57;23.40;98.30
7738;DHT22;29398;45.328;5.558;2023-07-09T01:55:00;23.40;98.30
7738;DHT22;29398;45.328;5.558;2023-07-09T01:56:06;23.50;98.30
7738;DHT22;29398;45.328;5.558;2023-07-09T01:57:16;23.40;98.30
7738;DHT22;29398;45.328;5.558;2023-07-09T01:58:20;23.40;98.30
7738;DHT22;29398;45.328;5.558;2023-07-09T01:59:25;23.40;98.30
7738;DHT22;29398;45.328;5.558;2023-07-09T02:00:28;23.40;98.30
7738;DHT22;29398;45.328;5.558;2023-07-09T02:01:29;23.40;98.30
7738;DHT22;29398;45.328;5.558;2023-07-09T02:02:36;23.40;98.30
7738;DHT22;29398;45.328;5.558;2023-07-09T02:03:39;23.40;98.40
7738;DHT22;29398;45.328;5.558;2023-07-09T02:04:41;23.40;98.40
7738;DHT22;29398;45.328;5.558;2023-07-09T02:05:43;23.40;98.50
7738;DHT22;29398;45.328;5.558;2023-07-09T02:06:46;23.40;98.70
7738;DHT22;29398;45.328;5.558;2023-07-09T02:07:47;23.30;98.70
7738;DHT22;29398;45.328;5.558;2023-07-09T02:08:50;23.30;98.80
7738;DHT22;29398;45.328;5.558;2023-07-09T02:09:52;23.30;99.00
7738;DHT22;29398;45.328;5.558;2023-07-09T02:10:54;23.20;99.10
7738;DHT22;29398;45.328;5.558;2023-07-09T02:11:55;23.20;99.20
7738;DHT22;29398;45.328;5.558;2023-07-09T02:12:57;23.20;99.70
7738;DHT22;29398;45.328;5.558;2023-07-09T02:13:58;23.10;99.40
7738;DHT22;29398;45.328;5.558;2023-07-09T02:15:00;23.10;99.60
7738;DHT22;29398;45.328;5.558;2023-07-09T02:16:01;23.00;99.90
7738;DHT22;29398;45.328;5.558;2023-07-09T02:17:04;23.00;99.90
7738;DHT22;29398;45.328;5.558;2023-07-09T02:18:05;23.00;99.90
7738;DHT22;29398;45.328;5.558;2023-07-09T02:19:07;23.00;99.90
7738;DHT22;29398;45.328;5.558;2023-07-09T02:20:09;22.90;99.90
7738;DHT22;29398;45.328;5.558;2023-07-09T02:21:11;22.90;99.90
7738;DHT22;29398;45.328;5.558;2023-07-09T02:22:13;22.90;99.90
7738;DHT22;29398;45.328;5.558;2023-07-09T02:23:14;22.80;99.90
7738;DHT22;29398;45.328;5.558;2023-07-09T02:24:18;22.80;99.90
7738;DHT22;29398;45.328;5.558;2023-07-09T02:25:19;22.80;99.90
7738;DHT22;29398;45.328;5.558;2023-07-09T02:26:21;22.80;99.90
7738;DHT22;29398;45.328;5.558;2023-07-09T02:27:23;22.80;99.90
7738;DHT22;29398;45.328;5.558;2023-07-09T02:28:25;22.80;99.90
7738;DHT22;29398;45.328;5.558;2023-07-09T02:29:27;22.80;99.90
7738;DHT22;29398;45.328;5.558;2023-07-09T02:30:30;22.70;99.90
7738;DHT22;29398;45.328;5.558;2023-07-09T02:31:31;22.70;99.90
7738;DHT22;29398;45.328;5.558;2023-07-09T02:32:35;22.70;99.90
7738;DHT22;29398;45.328;5.558;2023-07-09T02:33:36;22.70;99.90
7738;DHT22;29398;45.328;5.558;2023-07-09T02:34:38;22.70;99.90
7738;DHT22;29398;45.328;5.558;2023-07-09T02:35:39;22.70;99.90
7738;DHT22;29398;45.328;5.558;2023-07-09T02:36:41;22.60;99.90
7738;DHT22;29398;45.328;5.558;2023-07-09T02:37:43;22.60;99.90
7738;DHT22;29398;45.328;5.558;2023-07-09T02:38:45;22.70;99.90
7738;DHT22;29398;45.328;5.558;2023-07-09T02:39:48;22.60;99.90
7738;DHT22;29398;45.328;5.558;2023-07-09T02:40:50;22.60;99.90
7738;DHT22;29398;45.328;5.558;2023-07-09T02:41:51;22.60;99.90
7738;DHT22;29398;45.328;5.558;2023-07-09T02:42:53;22.50;99.90
7738;DHT22;29398;45.328;5.558;2023-07-09T02:43:55;22.50;99.90
7738;DHT22;29398;45.328;5.558;2023-07-09T02:44:55;22.50;99.90
7738;DHT22;29398;45.328;5.558;2023-07-09T02:46:00;22.50;99.90
7738;DHT22;29398;45.328;5.558;2023-07-09T02:47:01;22.50;99.90
7738;DHT22;29398;45.328;5.558;2023-07-09T02:48:03;22.50;99.90
7738;DHT22;29398;45.328;5.558;2023-07-09T02:49:11;22.50;99.90
7738;DHT22;29398;45.328;5.558;2023-07-09T02:50:14;22.50;99.90
7738;DHT22;29398;45.328;5.558;2023-07-09T02:51:15;22.50;99.90
7738;DHT22;29398;45.328;5.558;2023-07-09T02:52:16;22.50;99.90
7738;DHT22;29398;45.328;5.558;2023-07-09T02:53:18;22.50;99.90
7738;DHT22;29398;45.328;5.558;2023-07-09T02:54:19;22.50;99.90
7738;DHT22;29398;45.328;5.558;2023-07-09T02:55:23;22.50;99.90
7738;DHT22;29398;45.328;5.558;2023-07-09T02:56:24;22.50;99.90
7738;DHT22;29398;45.328;5.558;2023-07-09T02:57:26;22.50;99.90
7738;DHT22;29398;45.328;5.558;2023-07-09T02:58:27;22.50;99.90
7738;DHT22;29398;45.328;5.558;2023-07-09T02:59:29;22.50;99.90
7738;DHT22;29398;45.328;5.558;2023-07-09T03:00:30;22.40;99.90
7738;DHT22;29398;45.328;5.558;2023-07-09T03:01:33;22.40;99.90
7738;DHT22;29398;45.328;5.558;2023-07-09T03:02:35;22.40;99.90
7738;DHT22;29398;45.328;5.558;2023-07-09T03:03:37;22.40;99.90
7738;DHT22;29398;45.328;5.558;2023-07-09T03:04:38;22.40;99.90
7738;DHT22;29398;45.328;5.558;2023-07-09T03:05:40;22.40;99.90
7738;DHT22;29398;45.328;5.558;2023-07-09T03:06:41;22.40;99.90
7738;DHT22;29398;45.328;5.558;2023-07-09T03:07:43;22.40;99.90
7738;DHT22;29398;45.328;5.558;2023-07-09T03:08:44;22.40;99.90
7738;DHT22;29398;45.328;5.558;2023-07-09T03:09:46;22.40;99.90
7738;DHT22;29398;45.328;5.558;2023-07-09T03:10:49;22.40;99.90
7738;DHT22;29398;45.328;5.558;2023-07-09T03:11:51;22.40;99.90
7738;DHT22;29398;45.328;5.558;2023-07-09T03:12:52;22.40;99.90
7738;DHT22;29398;45.328;5.558;2023-07-09T03:13:54;22.40;99.90
7738;DHT22;29398;45.328;5.558;2023-07-09T03:14:55;22.40;99.90
7738;DHT22;29398;45.328;5.558;2023-07-09T03:15:57;22.40;99.90
7738;DHT22;29398;45.328;5.558;2023-07-09T03:16:58;22.40;99.90
7738;DHT22;29398;45.328;5.558;2023-07-09T03:18:01;22.40;99.90
7738;DHT22;29398;45.328;5.558;2023-07-09T03:19:02;22.40;99.90
7738;DHT22;29398;45.328;5.558;2023-07-09T03:20:06;22.40;99.90
7738;DHT22;29398;45.328;5.558;2023-07-09T03:21:08;22.40;99.90
7738;DHT22;29398;45.328;5.558;2023-07-09T03:22:10;22.40;99.90
7738;DHT22;29398;45.328;5.558;2023-07-09T03:23:11;22.40;99.90
7738;DHT22;29398;45.328;5.558;2023-07-09T03:24:13;22.40;99.90
7738;DHT22;29398;45.328;5.558;2023-07-09T03:25:15;22.40;99.90
7738;DHT22;29398;45.328;5.558;2023-07-09T03:26:19;22.40;99.90
7738;DHT22;29398;45.328;5.558;2023-07-09T03:27:20;22.40;99.90
7738;DHT22;29398;45.328;5.558;2023-07-09T03:28:22;22.30;99.90
7738;DHT22;29398;45.328;5.558;2023-07-09T03:29:23;22.30;99.90
7738;DHT22;29398;45.328;5.558;2023-07-09T03:30:25;22.30;99.90
7738;DHT22;29398;45.328;5.558;2023-07-09T03:31:27;22.30;99.90
7738;DHT22;29398;45.328;5.558;2023-07-09T03:32:30;22.30;99.90
7738;DHT22;29398;45.328;5.558;2023-07-09T03:33:31;22.30;99.90
7738;DHT22;29398;45.328;5.558;2023-07-09T03:34:33;22.30;99.90
7738;DHT22;29398;45.328;5.558;2023-07-09T03:35:34;22.30;99.90
7738;DHT22;29398;45.328;5.558;2023-07-09T03:36:37;22.30;99.90
7738;DHT22;29398;45.328;5.558;2023-07-09T03:37:39;22.20;99.90
7738;DHT22;29398;45.328;5.558;2023-07-09T03:38:40;22.20;99.90
7738;DHT22;29398;45.328;5.558;2023-07-09T03:39:42;22.20;99.90
7738;DHT22;29398;45.328;5.558;2023-07-09T03:40:43;22.20;99.90
7738;DHT22;29398;45.328;5.558;2023-07-09T03:41:46;22.20;99.90
7738;DHT22;29398;45.328;5.558;2023-07-09T03:42:47;22.20;99.90
7738;DHT22;29398;45.328;5.558;2023-07-09T03:43:49;22.20;99.90
7738;DHT22;29398;45.328;5.558;2023-07-09T03:44:53;22.20;99.90
7738;DHT22;29398;45.328;5.558;2023-07-09T03:45:55;22.20;99.90
7738;DHT22;29398;45.328;5.558;2023-07-09T03:46:56;22.20;99.90
7738;DHT22;29398;45.328;5.558;2023-07-09T03:47:58;22.20;99.90
7738;DHT22;29398;45.328;5.558;2023-07-09T03:49:00;22.20;99.90
7738;DHT22;29398;45.328;5.558;2023-07-09T03:50:02;22.20;99.90
7738;DHT22;29398;45.328;5.558;2023-07-09T03:51:03;22.10;99.90
7738;DHT22;29398;45.328;5.558;2023-07-09T03:52:06;22.10;99.90
7738;DHT22;29398;45.328;5.558;2023-07-09T03:53:07;22.20;99.90
7738;DHT22;29398;45.328;5.558;2023-07-09T03:54:09;22.10;99.90
7738;DHT22;29398;45.328;5.558;2023-07-09T03:55:10;22.10;99.90
7738;DHT22;29398;45.328;5.558;2023-07-09T03:56:13;22.10;99.90
7738;DHT22;29398;45.328;5.558;2023-07-09T03:57:16;22.00;99.90
7738;DHT22;29398;45.328;5.558;2023-07-09T03:58:18;22.00;99.90
7738;DHT22;29398;45.328;5.558;2023-07-09T03:59:19;22.00;99.90
7738;DHT22;29398;45.328;5.558;2023-07-09T04:00:21;22.00;99.90
7738;DHT22;29398;45.328;5.558;2023-07-09T04:01:23;22.00;99.90
7738;DHT22;29398;45.328;5.558;2023-07-09T04:02:25;22.00;99.90
7738;DHT22;29398;45.328;5.558;2023-07-09T04:03:26;22.00;99.90
7738;DHT22;29398;45.328;5.558;2023-07-09T04:04:28;22.00;99.90
7738;DHT22;29398;45.328;5.558;2023-07-09T04:05:29;22.00;99.90
7738;DHT22;29398;45.328;5.558;2023-07-09T04:06:31;22.00;99.90
7738;DHT22;29398;45.328;5.558;2023-07-09T04:07:32;21.90;99.90
7738;DHT22;29398;45.328;5.558;2023-07-09T04:08:33;21.90;99.90
7738;DHT22;29398;45.328;5.558;2023-07-09T04:09:35;22.00;99.90
7738;DHT22;29398;45.328;5.558;2023-07-09T04:10:36;21.90;99.90
7738;DHT22;29398;45.328;5.558;2023-07-09T04:11:38;21.90;99.90
7738;DHT22;29398;45.328;5.558;2023-07-09T04:12:40;21.90;99.90
7738;DHT22;29398;45.328;5.558;2023-07-09T04:13:42;21.90;99.90
7738;DHT22;29398;45.328;5.558;2023-07-09T04:14:43;21.90;99.90
7738;DHT22;29398;45.328;5.558;2023-07-09T04:15:46;21.90;99.90
7738;DHT22;29398;45.328;5.558;2023-07-09T04:16:47;21.90;99.90
7738;DHT22;29398;45.328;5.558;2023-07-09T04:17:49;21.90;99.90
7738;DHT22;29398;45.328;5.558;2023-07-09T04:18:50;21.90;99.90
7738;DHT22;29398;45.328;5.558;2023-07-09T04:19:52;21.90;99.90
7738;DHT22;29398;45.328;5.558;2023-07-09T04:20:53;21.90;99.90
7738;DHT22;29398;45.328;5.558;2023-07-09T04:21:55;21.90;99.90
7738;DHT22;29398;45.328;5.558;2023-07-09T04:22:56;21.90;99.90
7738;DHT22;29398;45.328;5.558;2023-07-09T04:23:59;21.90;99.90
7738;DHT22;29398;45.328;5.558;2023-07-09T04:25:00;21.90;99.90
7738;DHT22;29398;45.328;5.558;2023-07-09T04:26:01;21.90;99.90
7738;DHT22;29398;45.328;5.558;2023-07-09T04:27:05;21.90;99.90
7738;DHT22;29398;45.328;5.558;2023-07-09T04:28:07;21.90;99.90
7738;DHT22;29398;45.328;5.558;2023-07-09T04:29:09;21.90;99.90
7738;DHT22;29398;45.328;5.558;2023-07-09T04:30:13;21.90;99.90
7738;DHT22;29398;45.328;5.558;2023-07-09T04:31:15;22.00;99.90
7738;DHT22;29398;45.328;5.558;2023-07-09T04:32:16;21.90;99.90
7738;DHT22;29398;45.328;5.558;2023-07-09T04:33:19;21.90;99.90
7738;DHT22;29398;45.328;5.558;2023-07-09T04:34:20;21.90;99.90
7738;DHT22;29398;45.328;5.558;2023-07-09T04:35:22;21.90;99.90
7738;DHT22;29398;45.328;5.558;2023-07-09T04:36:24;21.90;99.90
7738;DHT22;29398;45.328;5.558;2023-07-09T04:37:26;21.90;99.90
7738;DHT22;29398;45.328;5.558;2023-07-09T04:38:27;21.90;99.90
7738;DHT22;29398;45.328;5.558;2023-07-09T04:39:29;21.90;99.90
7738;DHT22;29398;45.328;5.558;2023-07-09T04:40:31;21.90;99.90
7738;DHT22;29398;45.328;5.558;2023-07-09T04:41:33;21.90;99.90
7738;DHT22;29398;45.328;5.558;2023-07-09T04:42:34;21.90;99.90
7738;DHT22;29398;45.328;5.558;2023-07-09T04:43:36;21.90;99.90
7738;DHT22;29398;45.328;5.558;2023-07-09T04:44:38;21.90;99.90
7738;DHT22;29398;45.328;5.558;2023-07-09T04:45:39;21.90;99.90
7738;DHT22;29398;45.328;5.558;2023-07-09T04:46:41;21.90;99.90
7738;DHT22;29398;45.328;5.558;2023-07-09T04:47:42;21.90;99.90
7738;DHT22;29398;45.328;5.558;2023-07-09T04:48:45;21.90;99.90
7738;DHT22;29398;45.328;5.558;2023-07-09T04:49:46;21.90;99.90
7738;DHT22;29398;45.328;5.558;2023-07-09T04:50:48;22.00;99.90
7738;DHT22;29398;45.328;5.558;2023-07-09T04:51:50;22.00;99.90
7738;DHT22;29398;45.328;5.558;2023-07-09T04:52:52;22.00;99.90
7738;DHT22;29398;45.328;5.558;2023-07-09T04:53:53;22.00;99.90
7738;DHT22;29398;45.328;5.558;2023-07-09T04:54:55;22.10;99.90
7738;DHT22;29398;45.328;5.558;2023-07-09T04:55:57;22.10;99.90
7738;DHT22;29398;45.328;5.558;2023-07-09T04:56:59;22.10;99.90
7738;DHT22;29398;45.328;5.558;2023-07-09T04:58:00;22.10;99.90
7738;DHT22;29398;45.328;5.558;2023-07-09T04:59:03;22.10;99.90
7738;DHT22;29398;45.328;5.558;2023-07-09T05:00:06;22.10;99.90
7738;DHT22;29398;45.328;5.558;2023-07-09T05:01:08;22.10;99.90
7738;DHT22;29398;45.328;5.558;2023-07-09T05:02:09;22.20;99.90
7738;DHT22;29398;45.328;5.558;2023-07-09T05:03:11;22.20;99.90
7738;DHT22;29398;45.328;5.558;2023-07-09T05:04:12;22.20;99.90
7738;DHT22;29398;45.328;5.558;2023-07-09T05:05:14;22.30;99.90
7738;DHT22;29398;45.328;5.558;2023-07-09T05:06:15;22.30;99.90
7738;DHT22;29398;45.328;5.558;2023-07-09T05:07:17;22.30;99.90
7738;DHT22;29398;45.328;5.558;2023-07-09T05:08:18;22.30;99.90
7738;DHT22;29398;45.328;5.558;2023-07-09T05:09:21;22.40;99.90
7738;DHT22;29398;45.328;5.558;2023-07-09T05:10:24;22.40;99.90
7738;DHT22;29398;45.328;5.558;2023-07-09T05:11:26;22.50;99.90
7738;DHT22;29398;45.328;5.558;2023-07-09T05:12:27;22.50;99.90
7738;DHT22;29398;45.328;5.558;2023-07-09T05:13:29;22.60;99.90
7738;DHT22;29398;45.328;5.558;2023-07-09T05:14:31;22.60;99.90
7738;DHT22;29398;45.328;5.558;2023-07-09T05:15:33;22.70;99.90
7738;DHT22;29398;45.328;5.558;2023-07-09T05:16:34;22.70;99.90
7738;DHT22;29398;45.328;5.558;2023-07-09T05:17:35;22.70;99.90
7738;DHT22;29398;45.328;5.558;2023-07-09T05:18:37;22.80;99.90
7738;DHT22;29398;45.328;5.558;2023-07-09T05:19:38;22.90;99.90
7738;DHT22;29398;45.328;5.558;2023-07-09T05:20:41;22.90;99.90
7738;DHT22;29398;45.328;5.558;2023-07-09T05:21:42;22.90;99.90
7738;DHT22;29398;45.328;5.558;2023-07-09T05:22:43;23.00;99.90
7738;DHT22;29398;45.328;5.558;2023-07-09T05:23:45;23.00;99.90
7738;DHT22;29398;45.328;5.558;2023-07-09T05:24:46;23.00;99.90
7738;DHT22;29398;45.328;5.558;2023-07-09T05:25:48;23.00;99.90
7738;DHT22;29398;45.328;5.558;2023-07-09T05:26:49;23.10;99.90
7738;DHT22;29398;45.328;5.558;2023-07-09T05:27:50;23.10;99.90
7738;DHT22;29398;45.328;5.558;2023-07-09T05:28:52;23.20;99.90
7738;DHT22;29398;45.328;5.558;2023-07-09T05:29:55;23.10;99.90
7738;DHT22;29398;45.328;5.558;2023-07-09T05:30:57;23.20;99.90
7738;DHT22;29398;45.328;5.558;2023-07-09T05:31:58;23.10;99.90
7738;DHT22;29398;45.328;5.558;2023-07-09T05:33:00;23.20;99.90
7738;DHT22;29398;45.328;5.558;2023-07-09T05:34:01;23.20;99.90
7738;DHT22;29398;45.328;5.558;2023-07-09T05:35:03;23.20;99.90
7738;DHT22;29398;45.328;5.558;2023-07-09T05:36:05;23.30;99.90
7738;DHT22;29398;45.328;5.558;2023-07-09T05:37:07;23.30;99.90
7738;DHT22;29398;45.328;5.558;2023-07-09T05:38:08;23.30;99.90
7738;DHT22;29398;45.328;5.558;2023-07-09T05:39:11;23.30;99.90
7738;DHT22;29398;45.328;5.558;2023-07-09T05:40:12;23.30;99.90
7738;DHT22;29398;45.328;5.558;2023-07-09T05:41:14;23.40;99.90
7738;DHT22;29398;45.328;5.558;2023-07-09T05:42:17;23.40;99.90
7738;DHT22;29398;45.328;5.558;2023-07-09T05:43:19;23.40;99.90
7738;DHT22;29398;45.328;5.558;2023-07-09T05:44:20;23.40;99.90
7738;DHT22;29398;45.328;5.558;2023-07-09T05:45:23;23.50;99.90
7738;DHT22;29398;45.328;5.558;2023-07-09T05:46:24;23.50;99.90
7738;DHT22;29398;45.328;5.558;2023-07-09T05:47:26;23.50;99.90
7738;DHT22;29398;45.328;5.558;2023-07-09T05:48:27;23.60;99.90
7738;DHT22;29398;45.328;5.558;2023-07-09T05:49:29;23.60;99.90
7738;DHT22;29398;45.328;5.558;2023-07-09T05:50:33;23.60;99.90
7738;DHT22;29398;45.328;5.558;2023-07-09T05:51:35;23.60;99.90
7738;DHT22;29398;45.328;5.558;2023-07-09T05:52:36;23.70;99.90
7738;DHT22;29398;45.328;5.558;2023-07-09T05:53:38;23.70;99.90
7738;DHT22;29398;45.328;5.558;2023-07-09T05:54:40;23.70;99.90
7738;DHT22;29398;45.328;5.558;2023-07-09T05:55:42;23.70;99.90
7738;DHT22;29398;45.328;5.558;2023-07-09T05:56:43;23.70;99.90
7738;DHT22;29398;45.328;5.558;2023-07-09T05:57:45;23.80;99.90
7738;DHT22;29398;45.328;5.558;2023-07-09T05:58:46;23.80;99.90
7738;DHT22;29398;45.328;5.558;2023-07-09T05:59:47;23.90;99.90
7738;DHT22;29398;45.328;5.558;2023-07-09T06:00:51;23.90;99.90
7738;DHT22;29398;45.328;5.558;2023-07-09T06:01:54;24.00;99.90
7738;DHT22;29398;45.328;5.558;2023-07-09T06:02:56;24.00;99.90
7738;DHT22;29398;45.328;5.558;2023-07-09T06:03:58;24.10;99.90
7738;DHT22;29398;45.328;5.558;2023-07-09T06:05:00;24.10;99.90
7738;DHT22;29398;45.328;5.558;2023-07-09T06:06:01;24.10;99.90
7738;DHT22;29398;45.328;5.558;2023-07-09T06:07:03;24.10;99.90
7738;DHT22;29398;45.328;5.558;2023-07-09T06:08:04;24.10;99.90
7738;DHT22;29398;45.328;5.558;2023-07-09T06:09:06;24.10;99.90
7738;DHT22;29398;45.328;5.558;2023-07-09T06:10:09;24.20;99.90
7738;DHT22;29398;45.328;5.558;2023-07-09T06:11:11;24.20;99.90
7738;DHT22;29398;45.328;5.558;2023-07-09T06:12:12;24.20;99.70
7738;DHT22;29398;45.328;5.558;2023-07-09T06:13:15;24.30;99.90
7738;DHT22;29398;45.328;5.558;2023-07-09T06:14:16;24.30;99.80
7738;DHT22;29398;45.328;5.558;2023-07-09T06:15:19;24.30;99.90
7738;DHT22;29398;45.328;5.558;2023-07-09T06:16:21;24.40;99.90
7738;DHT22;29398;45.328;5.558;2023-07-09T06:17:23;24.40;99.90
7738;DHT22;29398;45.328;5.558;2023-07-09T06:18:25;24.40;99.90
7738;DHT22;29398;45.328;5.558;2023-07-09T06:19:29;24.40;99.90
7738;DHT22;29398;45.328;5.558;2023-07-09T06:20:31;24.50;99.90
7738;DHT22;29398;45.328;5.558;2023-07-09T06:21:32;24.50;99.10
7738;DHT22;29398;45.328;5.558;2023-07-09T06:22:33;24.50;99.50
7738;DHT22;29398;45.328;5.558;2023-07-09T06:23:35;24.60;99.40
7738;DHT22;29398;45.328;5.558;2023-07-09T06:24:36;24.60;99.10
7738;DHT22;29398;45.328;5.558;2023-07-09T06:25:38;24.60;99.20
7738;DHT22;29398;45.328;5.558;2023-07-09T06:26:39;24.60;98.80
7738;DHT22;29398;45.328;5.558;2023-07-09T06:27:41;24.60;98.90
7738;DHT22;29398;45.328;5.558;2023-07-09T06:28:42;24.70;98.50
7738;DHT22;29398;45.328;5.558;2023-07-09T06:29:44;24.70;98.20
7738;DHT22;29398;45.328;5.558;2023-07-09T06:30:46;24.70;98.50
7738;DHT22;29398;45.328;5.558;2023-07-09T06:31:49;24.80;98.70
7738;DHT22;29398;45.328;5.558;2023-07-09T06:32:50;24.80;98.50
7738;DHT22;29398;45.328;5.558;2023-07-09T06:33:52;24.80;98.80
7738;DHT22;29398;45.328;5.558;2023-07-09T06:34:54;24.90;98.70
7738;DHT22;29398;45.328;5.558;2023-07-09T06:35:57;24.90;98.70
7738;DHT22;29398;45.328;5.558;2023-07-09T06:36:59;25.00;99.00
7738;DHT22;29398;45.328;5.558;2023-07-09T06:38:01;25.00;99.00
7738;DHT22;29398;45.328;5.558;2023-07-09T06:39:02;25.00;98.90
7738;DHT22;29398;45.328;5.558;2023-07-09T06:40:06;25.00;99.00
7738;DHT22;29398;45.328;5.558;2023-07-09T06:41:09;25.00;99.00
7738;DHT22;29398;45.328;5.558;2023-07-09T06:42:11;25.00;99.50